Flugplatz Bohmte-Bad Essen (EDXD)

Hier findest Du alle Informationen zum Flugplatz Bohmte-Bad Essen (EDXD).

Informationen für Piloten zum Flugplatz Bohmte-Bad Essen

Hier findest Du alle relevanten Informationen, die Du als Pilot benötigst, um Bohmte-Bad Essen anzufliegen.

Flugplatz: Bohmte-Bad Essen ICAO-Code: EDXD
Frequenz Turm: 122,500 Mhz GAFOR Gebiet: 9
Frequenz Ground: 122,500 Mhz Mogas: ja
Platzrunde: S 700 ft Landegebühr: -
Platzhöhe: 148 ft Sunrise: 06:05 Uhr UTC
Pisten: 10/28 - 580 m x 30 m, GRAS Sunset: 17:11 Uhr UTC

Flugwetter am Flugplatz Bohmte-Bad Essen

Die METAR Information stammen aus EDDG (50.08 km entfernt).

METAR Code:
2024/02/29 17:20
EDDG 291720Z AUTO 15004KT 9999 SCT042 10/03 Q1007 NOSIG

Flugschulen am Flugplatz Bohmte-Bad Essen

Am Flugplatz Bohmte-Bad Essen gibt es leider keine Flugschule.

Benachbarte Flugplätze und Flugschulen

Es gibt 11 weitere Flugplätze in einem Umkreis von 50 km um den Flugplatz Bohmte-Bad Essen.

Jetzt anmelden

Passwort vergessen

Umfrage Archiv

Wie häufig haltet Ihr die Halbkreisflugregel ein?

Eher häufig!
34.9 %
Immer!
33 %
Hin und wieder!
15.3 %
Nie!
10 %
Eher selten!
6.7 %
Stimmen: 209 | Diskussion
Anzeige: Roland Aircraft
Statistik Alle Mitglieder

Aktuell sind 21 Besucher online.

Anzeige: EasyVFR